createdAt,value
2019-01-14T00:00:55.262Z,6.90
2019-01-14T00:03:24.576Z,6.90
2019-01-14T00:05:53.848Z,6.80
2019-01-14T00:08:23.543Z,6.80
2019-01-14T00:10:52.840Z,6.80
2019-01-14T00:13:22.157Z,6.80
2019-01-14T00:15:51.440Z,6.70
2019-01-14T00:18:20.805Z,6.60
2019-01-14T00:20:50.096Z,6.60
2019-01-14T00:23:19.373Z,6.60
2019-01-14T00:25:48.733Z,6.60
2019-01-14T00:28:18.086Z,6.60
2019-01-14T00:30:47.373Z,6.60
2019-01-14T00:33:16.648Z,6.60
2019-01-14T00:35:45.970Z,6.60
2019-01-14T00:38:15.227Z,6.60
2019-01-14T00:40:44.558Z,6.60
2019-01-14T00:43:13.823Z,6.60
2019-01-14T00:45:43.852Z,6.60
2019-01-14T00:48:13.089Z,6.60
2019-01-14T00:50:42.419Z,6.60
2019-01-14T00:53:11.691Z,6.60
2019-01-14T00:55:40.981Z,6.60
2019-01-14T00:58:10.253Z,6.70
2019-01-14T01:00:39.566Z,6.60
2019-01-14T01:03:08.847Z,6.70
2019-01-14T01:05:38.155Z,6.70
2019-01-14T01:08:07.532Z,6.70
2019-01-14T01:10:36.818Z,6.70
2019-01-14T01:13:06.187Z,6.70
2019-01-14T01:15:35.479Z,6.70
2019-01-14T01:18:05.071Z,6.70
2019-01-14T01:20:36.288Z,6.60
2019-01-14T01:23:07.202Z,6.60
2019-01-14T01:25:36.468Z,6.70
2019-01-14T01:28:06.034Z,6.70
2019-01-14T01:30:35.296Z,6.70
2019-01-14T01:33:04.604Z,6.70
2019-01-14T01:35:33.855Z,6.70
2019-01-14T01:38:03.159Z,6.70
2019-01-14T01:40:32.431Z,6.70
2019-01-14T01:43:01.704Z,6.60
2019-01-14T01:45:31.035Z,6.60
2019-01-14T01:48:00.290Z,6.60
2019-01-14T01:50:29.610Z,6.60
2019-01-14T01:52:58.932Z,6.60
2019-01-14T01:55:28.228Z,6.70
2019-01-14T01:57:57.868Z,6.70
2019-01-14T02:00:27.161Z,6.70
2019-01-14T02:02:56.436Z,6.60
2019-01-14T02:05:26.038Z,6.70
2019-01-14T02:07:55.632Z,6.70
2019-01-14T02:10:24.919Z,6.70
2019-01-14T02:12:54.199Z,6.60
2019-01-14T02:15:23.768Z,6.50
2019-01-14T02:17:53.332Z,6.60
2019-01-14T02:20:22.623Z,6.60
2019-01-14T02:22:52.085Z,6.60
2019-01-14T02:25:21.380Z,6.60
2019-01-14T02:27:51.524Z,6.60
2019-01-14T02:30:22.757Z,6.60
2019-01-14T02:32:52.029Z,6.60
2019-01-14T02:35:21.337Z,6.50
2019-01-14T02:37:50.691Z,6.50
2019-01-14T02:40:21.805Z,6.50
2019-01-14T02:42:51.077Z,6.50
2019-01-14T02:45:20.382Z,6.50
2019-01-14T02:47:49.670Z,6.40
2019-01-14T02:50:19.054Z,6.40
2019-01-14T02:52:48.358Z,6.30
2019-01-14T02:55:17.658Z,6.30
2019-01-14T02:57:50.178Z,6.30
2019-01-14T03:00:22.401Z,6.30
2019-01-14T03:02:51.767Z,6.30
2019-01-14T03:05:21.436Z,6.30
2019-01-14T03:07:51.765Z,6.30
2019-01-14T03:10:21.080Z,6.30
2019-01-14T03:12:50.434Z,6.30
2019-01-14T03:15:20.459Z,6.30
2019-01-14T03:17:49.739Z,6.30
2019-01-14T03:20:19.346Z,6.30
2019-01-14T03:22:48.916Z,6.30
2019-01-14T03:25:18.334Z,6.30
2019-01-14T03:27:47.680Z,6.30
2019-01-14T03:30:18.895Z,6.30
2019-01-14T03:32:48.306Z,6.30
2019-01-14T03:35:17.663Z,6.40
2019-01-14T03:37:47.304Z,6.40
2019-01-14T03:40:18.086Z,6.30
2019-01-14T03:42:47.472Z,6.30
2019-01-14T03:45:16.963Z,6.40
2019-01-14T03:47:46.252Z,6.40
2019-01-14T03:50:21.545Z,6.40
2019-01-14T03:52:51.585Z,6.30
2019-01-14T03:55:20.980Z,6.40
2019-01-14T03:57:52.252Z,6.40
2019-01-14T04:00:21.553Z,6.40
2019-01-14T04:02:51.242Z,6.40
2019-01-14T04:05:20.506Z,6.40
2019-01-14T04:07:49.816Z,6.30
2019-01-14T04:10:19.077Z,6.40
2019-01-14T04:12:48.421Z,6.40
2019-01-14T04:15:19.440Z,6.30
2019-01-14T04:17:48.905Z,6.30
2019-01-14T04:20:19.617Z,6.20
2019-01-14T04:22:49.184Z,6.20
2019-01-14T04:25:18.452Z,6.20
2019-01-14T04:27:48.133Z,6.30
2019-01-14T04:30:24.983Z,6.30
2019-01-14T04:32:55.673Z,6.20
2019-01-14T04:35:25.356Z,6.20
2019-01-14T04:37:56.486Z,6.10
2019-01-14T04:40:27.019Z,6.10
2019-01-14T04:42:56.408Z,6.00
2019-01-14T04:45:25.893Z,6.00
2019-01-14T04:47:55.614Z,5.90
2019-01-14T04:50:24.875Z,5.90
2019-01-14T04:52:54.123Z,5.90
2019-01-14T04:55:23.456Z,5.90
2019-01-14T04:57:52.829Z,5.90
2019-01-14T05:00:26.756Z,6.00
2019-01-14T05:02:57.799Z,6.00
2019-01-14T05:05:27.084Z,6.00
2019-01-14T05:07:56.382Z,6.00
2019-01-14T05:10:25.671Z,6.00
2019-01-14T05:12:54.969Z,6.10
2019-01-14T05:15:24.268Z,6.10
2019-01-14T05:17:53.596Z,6.10
2019-01-14T05:20:27.752Z,6.10
2019-01-14T05:22:57.625Z,6.00
2019-01-14T05:25:27.138Z,6.00
2019-01-14T05:27:56.492Z,6.00
2019-01-14T05:30:25.777Z,6.00
2019-01-14T05:32:55.857Z,6.00
2019-01-14T05:35:25.388Z,6.10
2019-01-14T05:37:54.747Z,6.10
2019-01-14T05:40:27.191Z,6.10
2019-01-14T05:42:56.523Z,6.10
2019-01-14T05:45:25.939Z,6.10
2019-01-14T05:47:55.303Z,6.10
2019-01-14T05:50:24.643Z,6.00
2019-01-14T05:52:53.914Z,6.10
2019-01-14T05:55:23.232Z,6.10
2019-01-14T05:57:52.638Z,6.00
2019-01-14T06:00:30.004Z,6.10
2019-01-14T06:02:59.354Z,6.00
2019-01-14T06:05:29.093Z,6.00
2019-01-14T06:07:58.835Z,6.00
2019-01-14T06:10:30.456Z,6.00
2019-01-14T06:12:59.755Z,6.10
2019-01-14T06:15:29.024Z,6.10
2019-01-14T06:17:58.465Z,6.10
2019-01-14T06:20:28.984Z,6.10
2019-01-14T06:22:58.275Z,6.00
2019-01-14T06:25:27.582Z,6.00
2019-01-14T06:27:56.882Z,6.10
2019-01-14T06:30:27.664Z,5.90
2019-01-14T06:32:57.022Z,5.80
2019-01-14T06:35:26.436Z,5.80
2019-01-14T06:37:56.139Z,5.70
2019-01-14T06:40:25.908Z,5.70
2019-01-14T06:42:55.540Z,5.60
2019-01-14T06:45:24.831Z,5.50
2019-01-14T06:47:54.503Z,5.50
2019-01-14T06:50:23.792Z,5.40
2019-01-14T06:52:53.110Z,5.30
2019-01-14T06:55:22.601Z,5.30
2019-01-14T06:57:51.890Z,5.30
2019-01-14T07:00:23.717Z,5.30
2019-01-14T07:02:53.116Z,5.30
2019-01-14T07:05:25.706Z,5.30
2019-01-14T07:07:59.556Z,5.30
2019-01-14T07:10:28.447Z,5.20
2019-01-14T07:12:57.844Z,5.20
2019-01-14T07:15:27.282Z,5.20
2019-01-14T07:17:56.575Z,5.20
2019-01-14T07:20:25.869Z,5.30
2019-01-14T07:22:55.228Z,5.30
2019-01-14T07:25:24.627Z,5.40
2019-01-14T07:27:54.340Z,5.40
2019-01-14T07:30:24.090Z,5.50
2019-01-14T07:32:53.304Z,5.40
2019-01-14T07:35:22.677Z,5.30
2019-01-14T07:37:52.496Z,5.30
2019-01-14T07:40:21.899Z,5.30
2019-01-14T07:42:51.161Z,5.20
2019-01-14T07:45:20.805Z,5.30
2019-01-14T07:47:51.619Z,5.20
2019-01-14T07:50:20.976Z,5.20
2019-01-14T07:52:50.267Z,5.20
2019-01-14T07:55:20.037Z,5.20
2019-01-14T07:57:49.390Z,5.30
2019-01-14T08:00:21.473Z,5.30
2019-01-14T08:02:50.870Z,5.30
2019-01-14T08:05:20.349Z,5.30
2019-01-14T08:07:49.985Z,5.40
2019-01-14T08:10:19.260Z,5.40
2019-01-14T08:12:48.664Z,5.50
2019-01-14T08:15:19.932Z,5.50
2019-01-14T08:17:49.254Z,5.60
2019-01-14T08:20:18.620Z,5.60
2019-01-14T08:22:48.000Z,5.60
2019-01-14T08:25:17.773Z,5.60
2019-01-14T08:27:47.100Z,5.60
2019-01-14T08:30:21.955Z,5.70
2019-01-14T08:32:51.494Z,5.70
2019-01-14T08:35:20.937Z,5.70
2019-01-14T08:37:50.242Z,5.70
2019-01-14T08:40:19.689Z,5.70
2019-01-14T08:42:49.319Z,5.70
2019-01-14T08:45:18.661Z,5.70
2019-01-14T08:47:47.961Z,5.70
2019-01-14T08:50:21.512Z,5.70
2019-01-14T08:52:52.231Z,5.80
2019-01-14T08:55:21.598Z,5.80
2019-01-14T08:57:54.683Z,5.80
2019-01-14T09:00:22.949Z,5.80
2019-01-14T09:02:52.380Z,5.90
2019-01-14T09:05:21.690Z,5.90
2019-01-14T09:07:51.043Z,5.90
2019-01-14T09:10:23.264Z,5.90
2019-01-14T09:12:52.644Z,5.80
2019-01-14T09:15:22.064Z,5.80
2019-01-14T09:17:51.287Z,5.80
2019-01-14T09:20:22.724Z,5.80
2019-01-14T09:22:52.454Z,5.90
2019-01-14T09:25:21.672Z,5.80
2019-01-14T09:27:51.003Z,5.80
2019-01-14T09:30:22.602Z,5.80
2019-01-14T09:32:51.923Z,5.80
2019-01-14T09:35:21.311Z,5.90
2019-01-14T09:37:50.627Z,5.90
2019-01-14T09:40:22.741Z,5.90
2019-01-14T09:42:52.072Z,5.90
2019-01-14T09:45:21.406Z,5.90
2019-01-14T09:47:50.768Z,5.90
2019-01-14T09:50:20.072Z,5.90
2019-01-14T09:52:49.427Z,6.00
2019-01-14T09:55:19.670Z,6.00
2019-01-14T09:57:49.071Z,6.00
2019-01-14T10:00:18.406Z,6.00
2019-01-14T10:02:47.872Z,5.90
2019-01-14T10:05:18.791Z,5.90
2019-01-14T10:07:48.147Z,5.70
2019-01-14T10:10:19.330Z,5.50
2019-01-14T10:12:48.681Z,5.40
2019-01-14T10:15:24.631Z,5.30
2019-01-14T10:17:58.538Z,5.20
2019-01-14T10:20:27.881Z,5.30
2019-01-14T10:22:57.532Z,5.30
2019-01-14T10:25:26.875Z,5.30
2019-01-14T10:27:56.192Z,5.30
2019-01-14T10:30:25.529Z,5.30
2019-01-14T10:32:54.814Z,5.30
2019-01-14T10:35:24.071Z,5.30
2019-01-14T10:37:53.430Z,5.30
2019-01-14T10:40:22.697Z,5.30
2019-01-14T10:42:52.019Z,5.30
2019-01-14T10:45:22.747Z,5.30
2019-01-14T10:47:52.075Z,5.40
2019-01-14T10:50:21.407Z,5.50
2019-01-14T10:52:50.677Z,5.60
2019-01-14T10:55:19.991Z,5.60
2019-01-14T10:57:49.234Z,5.70
2019-01-14T11:00:21.149Z,5.70
2019-01-14T11:02:50.575Z,5.70
2019-01-14T11:05:24.472Z,5.70
2019-01-14T11:07:53.813Z,5.70
2019-01-14T11:10:23.052Z,5.80
2019-01-14T11:12:55.636Z,5.80
2019-01-14T11:15:24.945Z,5.90
2019-01-14T11:17:54.172Z,5.90
2019-01-14T11:20:26.455Z,5.90
2019-01-14T11:22:56.092Z,5.90
2019-01-14T11:25:25.429Z,6.00
2019-01-14T11:27:54.871Z,5.90
2019-01-14T11:30:26.439Z,5.90
2019-01-14T11:32:55.703Z,5.90
2019-01-14T11:35:24.992Z,5.90
2019-01-14T11:37:54.364Z,5.90
2019-01-14T11:40:29.527Z,5.90
2019-01-14T11:42:58.803Z,6.00
2019-01-14T11:45:28.108Z,6.10
2019-01-14T11:47:59.763Z,6.20
2019-01-14T11:50:29.069Z,6.30
2019-01-14T11:52:58.218Z,6.40
2019-01-14T11:55:27.615Z,6.50
2019-01-14T11:57:57.833Z,6.50
2019-01-14T12:00:27.335Z,6.50
2019-01-14T12:02:57.186Z,6.50
2019-01-14T12:05:26.539Z,6.40
2019-01-14T12:07:55.844Z,6.50
2019-01-14T12:10:25.100Z,6.50
2019-01-14T12:12:54.972Z,6.50
2019-01-14T12:15:26.957Z,6.30
2019-01-14T12:17:56.255Z,6.00
2019-01-14T12:20:25.905Z,5.70
2019-01-14T12:22:55.137Z,5.40
2019-01-14T12:25:24.513Z,5.30
2019-01-14T12:27:54.136Z,5.10
2019-01-14T12:30:29.300Z,5.00
2019-01-14T12:32:58.630Z,4.90
2019-01-14T12:35:27.895Z,4.80
2019-01-14T12:37:57.812Z,4.80
2019-01-14T12:40:27.049Z,4.90
2019-01-14T12:42:56.385Z,4.90
2019-01-14T12:45:25.985Z,5.00
2019-01-14T12:47:55.188Z,5.10
2019-01-14T12:50:24.664Z,5.10
2019-01-14T12:52:54.268Z,5.20
2019-01-14T12:55:23.577Z,5.20
2019-01-14T12:57:52.872Z,5.30
2019-01-14T13:00:24.394Z,5.40
2019-01-14T13:02:58.330Z,5.50
2019-01-14T13:05:25.068Z,5.50
2019-01-14T13:07:54.380Z,5.70
2019-01-14T13:10:23.759Z,5.80
2019-01-14T13:12:53.657Z,5.90
2019-01-14T13:15:24.983Z,5.90
2019-01-14T13:17:54.290Z,5.80
2019-01-14T13:20:23.886Z,5.70
2019-01-14T13:22:53.267Z,5.70
2019-01-14T13:25:22.739Z,5.70
2019-01-14T13:27:52.188Z,5.70
2019-01-14T13:30:31.639Z,5.70
2019-01-14T13:33:01.227Z,5.70
2019-01-14T13:35:30.813Z,5.70
2019-01-14T13:38:00.153Z,5.60
2019-01-14T13:40:29.508Z,5.60
2019-01-14T13:42:59.858Z,5.50
2019-01-14T13:45:29.232Z,5.60
2019-01-14T13:47:58.851Z,5.50
2019-01-14T13:50:29.269Z,5.40
2019-01-14T13:52:58.573Z,5.30
2019-01-14T13:55:27.984Z,5.20
2019-01-14T13:57:59.944Z,5.20
2019-01-14T14:00:28.963Z,5.20
2019-01-14T14:02:58.266Z,5.20
2019-01-14T14:05:27.930Z,5.30
2019-01-14T14:07:57.223Z,5.40
2019-01-14T14:10:32.872Z,5.50
2019-01-14T14:13:02.073Z,5.50
2019-01-14T14:15:31.473Z,5.60
2019-01-14T14:18:02.792Z,5.70
2019-01-14T14:20:32.128Z,5.70
2019-01-14T14:23:01.726Z,5.70
2019-01-14T14:25:33.338Z,5.80
2019-01-14T14:28:02.631Z,5.80
2019-01-14T14:30:37.453Z,5.80
2019-01-14T14:33:07.296Z,5.80
2019-01-14T14:35:36.821Z,5.70
2019-01-14T14:38:09.305Z,5.40
2019-01-14T14:40:39.051Z,5.20
2019-01-14T14:43:08.319Z,5.00
2019-01-14T14:45:37.610Z,4.90
2019-01-14T14:48:09.394Z,4.90
2019-01-14T14:50:38.692Z,4.80
2019-01-14T14:53:07.983Z,4.80
2019-01-14T14:55:37.226Z,4.80
2019-01-14T14:58:06.582Z,4.80
2019-01-14T15:00:35.856Z,4.70
2019-01-14T15:03:05.665Z,4.70
2019-01-14T15:05:34.949Z,4.70
2019-01-14T15:08:04.860Z,4.70
2019-01-14T15:10:34.142Z,4.80
2019-01-14T15:13:03.520Z,4.70
2019-01-14T15:15:32.784Z,4.70
2019-01-14T15:18:02.504Z,4.60
2019-01-14T15:20:32.690Z,4.60
2019-01-14T15:23:02.094Z,4.60
2019-01-14T15:25:31.379Z,4.50
2019-01-14T15:28:00.684Z,4.50
2019-01-14T15:30:31.252Z,4.40
2019-01-14T15:33:00.934Z,4.40
2019-01-14T15:35:30.325Z,4.40
2019-01-14T15:37:59.641Z,4.40
2019-01-14T15:40:28.916Z,4.30
2019-01-14T15:42:58.550Z,4.30
2019-01-14T15:45:28.261Z,4.40
2019-01-14T15:47:57.705Z,4.40
2019-01-14T15:50:27.065Z,4.40
2019-01-14T15:52:56.400Z,4.30
2019-01-14T15:55:29.026Z,4.30
2019-01-14T15:57:58.296Z,4.30
2019-01-14T16:00:27.768Z,4.40
2019-01-14T16:02:57.165Z,4.40
2019-01-14T16:05:26.544Z,4.40
2019-01-14T16:07:56.042Z,4.30
2019-01-14T16:10:26.350Z,4.30
2019-01-14T16:12:55.809Z,4.30
2019-01-14T16:15:25.479Z,4.30
2019-01-14T16:17:54.765Z,4.20
2019-01-14T16:20:26.131Z,4.10
2019-01-14T16:22:56.006Z,4.20
2019-01-14T16:25:25.387Z,4.10
2019-01-14T16:27:54.787Z,4.20
2019-01-14T16:30:25.816Z,4.10
2019-01-14T16:32:55.268Z,4.10
2019-01-14T16:35:24.611Z,4.10
2019-01-14T16:37:54.382Z,4.00
2019-01-14T16:40:24.783Z,4.00
2019-01-14T16:42:54.097Z,4.00
2019-01-14T16:45:26.105Z,4.00
2019-01-14T16:47:55.617Z,3.90
2019-01-14T16:50:25.178Z,4.00
2019-01-14T16:52:54.602Z,4.00
2019-01-14T16:55:49.232Z,4.00
2019-01-14T16:58:18.523Z,3.90
2019-01-14T17:00:47.829Z,3.90
2019-01-14T17:03:17.481Z,3.90
2019-01-14T17:05:46.806Z,3.80
2019-01-14T17:08:16.361Z,3.80
2019-01-14T17:10:45.723Z,3.80
2019-01-14T17:13:14.996Z,3.70
2019-01-14T17:15:44.308Z,3.80
2019-01-14T17:18:13.657Z,3.80
2019-01-14T17:20:43.358Z,3.80
2019-01-14T17:23:12.714Z,3.70
2019-01-14T17:25:42.024Z,3.80
2019-01-14T17:28:11.382Z,3.80
2019-01-14T17:30:41.105Z,3.80
2019-01-14T17:33:10.435Z,3.80
2019-01-14T17:35:39.848Z,3.80
2019-01-14T17:38:09.139Z,3.90
2019-01-14T17:40:38.971Z,3.90
2019-01-14T17:43:08.293Z,3.90
2019-01-14T17:45:37.703Z,3.90
2019-01-14T17:48:07.081Z,3.90
2019-01-14T17:50:36.396Z,3.90
2019-01-14T17:53:06.585Z,3.90
2019-01-14T17:55:36.482Z,3.90
2019-01-14T17:58:06.193Z,3.80
2019-01-14T18:00:35.901Z,3.80
2019-01-14T18:03:06.259Z,3.80
2019-01-14T18:05:35.635Z,3.70
2019-01-14T18:08:05.006Z,3.70
2019-01-14T18:10:40.044Z,3.60
2019-01-14T18:13:05.709Z,3.50
2019-01-14T18:15:35.525Z,3.50
2019-01-14T18:18:05.957Z,3.50
2019-01-14T18:20:35.772Z,3.40
2019-01-14T18:23:05.110Z,3.30
2019-01-14T18:25:34.536Z,3.30
2019-01-14T18:28:04.910Z,3.30
2019-01-14T18:30:34.203Z,3.30
2019-01-14T18:33:03.516Z,3.30
2019-01-14T18:35:32.806Z,3.30
2019-01-14T18:38:02.012Z,3.20
2019-01-14T18:40:34.104Z,3.10
2019-01-14T18:43:02.392Z,3.10
2019-01-14T18:45:31.677Z,3.10
2019-01-14T18:48:01.125Z,3.00
2019-01-14T18:50:30.480Z,3.00
2019-01-14T18:52:59.976Z,3.00
2019-01-14T18:55:29.263Z,3.00
2019-01-14T18:57:58.763Z,3.00
2019-01-14T19:00:28.340Z,2.90
2019-01-14T19:02:57.637Z,3.00
2019-01-14T19:05:27.553Z,3.00
2019-01-14T19:07:56.920Z,3.00
2019-01-14T19:10:26.223Z,3.10
2019-01-14T19:12:55.530Z,3.10
2019-01-14T19:15:24.895Z,3.10
2019-01-14T19:17:54.699Z,3.10
2019-01-14T19:20:26.639Z,3.10
2019-01-14T19:22:56.100Z,3.10
2019-01-14T19:25:27.361Z,3.00
2019-01-14T19:27:58.155Z,3.00
2019-01-14T19:30:27.521Z,3.00
2019-01-14T19:32:57.320Z,3.00
2019-01-14T19:35:27.040Z,3.10
2019-01-14T19:37:56.310Z,3.10
2019-01-14T19:40:25.617Z,3.10
2019-01-14T19:42:54.894Z,3.10
2019-01-14T19:45:24.650Z,3.10
2019-01-14T19:47:54.368Z,3.00
2019-01-14T19:50:24.597Z,3.00
2019-01-14T19:52:55.336Z,3.10
2019-01-14T19:55:24.688Z,3.10
2019-01-14T19:57:54.572Z,3.10
2019-01-14T20:00:31.053Z,3.10
2019-01-14T20:03:00.777Z,3.10
2019-01-14T20:05:30.059Z,3.10
2019-01-14T20:07:59.469Z,3.10
2019-01-14T20:10:28.790Z,3.20
2019-01-14T20:12:58.134Z,3.20
2019-01-14T20:15:27.693Z,3.30
2019-01-14T20:17:57.087Z,3.30
2019-01-14T20:20:26.481Z,3.30
2019-01-14T20:22:55.781Z,3.30
2019-01-14T20:25:25.179Z,3.30
2019-01-14T20:27:54.766Z,3.30
2019-01-14T20:30:24.881Z,3.40
2019-01-14T20:32:54.186Z,3.40
2019-01-14T20:35:23.692Z,3.40
2019-01-14T20:37:53.546Z,3.50
2019-01-14T20:40:23.081Z,3.50
2019-01-14T20:42:52.711Z,3.50
2019-01-14T20:45:22.534Z,3.50
2019-01-14T20:47:52.064Z,3.50
2019-01-14T20:50:24.969Z,3.40
2019-01-14T20:52:54.641Z,3.50
2019-01-14T20:55:24.485Z,3.50
2019-01-14T20:57:57.115Z,3.50
2019-01-14T21:00:26.936Z,3.50
2019-01-14T21:02:56.560Z,3.60
2019-01-14T21:05:27.090Z,3.60
2019-01-14T21:07:57.220Z,3.60
2019-01-14T21:10:27.004Z,3.50
2019-01-14T21:12:58.297Z,3.50
2019-01-14T21:15:30.113Z,3.50
2019-01-14T21:17:59.925Z,3.50
2019-01-14T21:20:30.034Z,3.50
2019-01-14T21:22:59.392Z,3.40
2019-01-14T21:25:28.821Z,3.30
2019-01-14T21:27:59.812Z,3.20
2019-01-14T21:30:29.484Z,3.20
2019-01-14T21:32:58.796Z,3.20
2019-01-14T21:35:28.150Z,3.20
2019-01-14T21:37:59.886Z,3.20
2019-01-14T21:40:29.476Z,3.10
2019-01-14T21:42:58.804Z,3.10
2019-01-14T21:45:28.482Z,3.00
2019-01-14T21:48:00.055Z,3.10
2019-01-14T21:50:29.333Z,3.10
2019-01-14T21:52:58.834Z,3.10
2019-01-14T21:55:28.512Z,3.00
2019-01-14T21:57:57.915Z,3.00
2019-01-14T22:00:27.215Z,2.90
2019-01-14T22:02:56.542Z,2.90
2019-01-14T22:05:27.640Z,2.90
2019-01-14T22:07:57.959Z,2.90
2019-01-14T22:10:28.640Z,2.90
2019-01-14T22:12:57.959Z,3.00
2019-01-14T22:15:27.411Z,2.90
2019-01-14T22:17:57.366Z,3.00
2019-01-14T22:20:28.608Z,3.10
2019-01-14T22:22:58.618Z,3.00
2019-01-14T22:25:28.364Z,3.00
2019-01-14T22:27:57.670Z,3.10
2019-01-14T22:30:34.762Z,3.10
2019-01-14T22:33:04.349Z,3.20
2019-01-14T22:35:33.688Z,3.20
2019-01-14T22:38:03.477Z,3.20
2019-01-14T22:40:32.796Z,3.30
2019-01-14T22:43:02.436Z,3.30
2019-01-14T22:45:31.774Z,3.30
2019-01-14T22:48:01.076Z,3.30
2019-01-14T22:50:30.418Z,3.20
2019-01-14T22:53:21.107Z,3.30
2019-01-14T22:55:50.146Z,3.30
2019-01-14T22:58:19.446Z,3.30
2019-01-14T23:01:20.073Z,3.30
2019-01-14T23:03:51.369Z,3.30
2019-01-14T23:06:20.706Z,3.30
2019-01-14T23:08:50.303Z,3.20
2019-01-14T23:11:19.622Z,3.30
2019-01-14T23:13:48.935Z,3.30
2019-01-14T23:16:18.253Z,3.30
2019-01-14T23:18:48.036Z,3.20
2019-01-14T23:21:17.760Z,3.20
2019-01-14T23:23:47.029Z,3.30
2019-01-14T23:26:16.376Z,3.20
2019-01-14T23:28:45.739Z,3.30
2019-01-14T23:31:15.008Z,3.20
2019-01-14T23:33:44.403Z,3.10
2019-01-14T23:36:13.850Z,3.10
2019-01-14T23:38:43.531Z,3.00
2019-01-14T23:41:12.865Z,3.10
2019-01-14T23:43:42.154Z,3.00
2019-01-14T23:46:11.582Z,3.00
2019-01-14T23:48:41.040Z,3.00
2019-01-14T23:51:10.803Z,2.90
2019-01-14T23:53:40.028Z,2.90
2019-01-14T23:56:09.346Z,2.80
2019-01-14T23:58:38.672Z,2.80
